Time;durP1;ratioP1;P1;durP2;ratioP2;P2;SDS_P1;SDS_P2;PMS_P1;PMS_P2;Temp;Humidity;BMP_temperature;BMP_pressure;BME280_temperature;BME280_humidity;BME280_pressure;Samples;Min_cycle;Max_cycle;Signal;HPM_P1;HPM_P2
2022/06/30 00:01:32;;;;;;;3.05;1.55;;;16.90;71.60;;;;;;5044626;28;20496;-70
2022/06/30 00:03:57;;;;;;;2.60;1.55;;;16.90;71.80;;;;;;5047243;28;20112;-70
2022/06/30 00:06:23;;;;;;;2.15;1.67;;;16.90;72.40;;;;;;5041854;28;20377;-70
2022/06/30 00:08:49;;;;;;;3.17;1.63;;;16.90;72.30;;;;;;5043678;28;20032;-70
2022/06/30 00:11:14;;;;;;;5.30;1.60;;;16.90;72.40;;;;;;5043435;28;20037;-70
2022/06/30 00:13:41;;;;;;;4.28;2.00;;;16.90;72.40;;;;;;5042147;28;20112;-70
2022/06/30 00:16:07;;;;;;;4.80;1.73;;;16.80;72.80;;;;;;5044157;28;20119;-70
2022/06/30 00:18:33;;;;;;;2.50;1.33;;;16.80;72.60;;;;;;5046996;28;20448;-70
2022/06/30 00:20:59;;;;;;;2.20;1.45;;;16.70;73.00;;;;;;5047140;28;20100;-70
2022/06/30 00:23:25;;;;;;;3.35;1.60;;;16.70;73.20;;;;;;5045029;28;20112;-70
2022/06/30 00:25:51;;;;;;;3.08;1.55;;;16.70;73.40;;;;;;5042495;28;20123;-70
2022/06/30 00:28:19;;;;;;;4.63;1.67;;;16.60;73.50;;;;;;5045100;28;20043;-70
2022/06/30 00:30:49;;;;;;;3.95;1.80;;;16.60;73.50;;;;;;5045072;28;20036;-70
2022/06/30 00:33:15;;;;;;;3.42;1.80;;;16.50;73.80;;;;;;5046832;28;20037;-70
2022/06/30 00:35:41;;;;;;;2.25;1.60;;;16.50;74.10;;;;;;5042602;28;20396;-70
2022/06/30 00:38:07;;;;;;;4.03;1.90;;;16.40;74.40;;;;;;5045910;28;20025;-70
2022/06/30 00:40:43;;;;;;;3.70;1.60;;;16.40;74.40;;;;;;5042885;28;20025;-70
2022/06/30 00:43:09;;;;;;;6.80;2.03;;;16.40;74.90;;;;;;5045124;28;20029;-70
2022/06/30 00:45:42;;;;;;;3.03;1.75;;;16.40;74.80;;;;;;5043182;28;20029;-70
2022/06/30 00:48:09;;;;;;;5.60;1.90;;;16.30;75.00;;;;;;5051111;28;20053;-70
2022/06/30 00:50:35;;;;;;;3.70;1.92;;;16.30;75.40;;;;;;5049429;28;20090;-70
2022/06/30 00:53:03;;;;;;;3.90;1.90;;;16.30;75.50;;;;;;5047658;28;20037;-70
2022/06/30 00:55:30;;;;;;;4.90;2.00;;;16.30;75.60;;;;;;5047880;28;20367;-70
2022/06/30 00:57:59;;;;;;;3.03;1.90;;;16.20;75.80;;;;;;5047124;28;20040;-70
2022/06/30 01:00:26;;;;;;;4.00;1.83;;;16.20;76.00;;;;;;5039956;28;20081;-70
2022/06/30 01:02:53;;;;;;;4.65;1.95;;;16.20;76.10;;;;;;5049941;28;20127;-70
2022/06/30 01:05:20;;;;;;;3.63;2.25;;;16.10;76.10;;;;;;5047713;28;20041;-70
2022/06/30 01:07:47;;;;;;;3.10;1.70;;;16.10;76.60;;;;;;5050370;28;20478;-70
2022/06/30 01:12:56;;;;;;;4.13;2.00;;;16.10;77.90;;;;;;5044168;28;20043;-70
2022/06/30 01:15:22;;;;;;;3.75;1.83;;;16.00;78.30;;;;;;5045443;28;20421;-70
2022/06/30 01:17:49;;;;;;;3.22;1.88;;;16.00;78.30;;;;;;5045157;28;20085;-70
2022/06/30 01:20:16;;;;;;;2.88;1.70;;;16.00;78.70;;;;;;5044695;28;20045;-70
2022/06/30 01:22:42;;;;;;;2.75;1.73;;;15.90;78.30;;;;;;5048990;28;20480;-70
2022/06/30 01:25:09;;;;;;;3.30;1.95;;;15.80;78.20;;;;;;5045944;28;20097;-70
2022/06/30 01:27:35;;;;;;;3.80;2.13;;;15.80;78.90;;;;;;5043207;28;20032;-70
2022/06/30 01:30:01;;;;;;;3.80;2.08;;;15.70;78.90;;;;;;5041074;28;20048;-70
2022/06/30 01:32:29;;;;;;;5.90;2.47;;;15.70;78.90;;;;;;5049204;28;20503;-70
2022/06/30 01:34:55;;;;;;;4.72;2.30;;;15.60;79.10;;;;;;5047458;28;20039;-70
2022/06/30 01:37:21;;;;;;;3.47;2.17;;;15.60;79.40;;;;;;5050651;28;20029;-70
2022/06/30 01:39:47;;;;;;;3.65;2.15;;;15.50;79.70;;;;;;5049020;28;20048;-70
2022/06/30 01:42:13;;;;;;;4.65;2.25;;;15.50;80.00;;;;;;5047521;28;20059;-70
2022/06/30 01:44:38;;;;;;;3.72;2.42;;;15.50;80.20;;;;;;5045345;28;20044;-70
2022/06/30 01:47:04;;;;;;;4.25;2.28;;;15.50;80.20;;;;;;5050189;28;20036;-70
2022/06/30 01:49:30;;;;;;;4.78;2.13;;;15.50;80.20;;;;;;5048819;28;20041;-70
2022/06/30 01:51:55;;;;;;;4.30;2.33;;;15.50;80.20;;;;;;5047425;28;20041;-70
2022/06/30 01:54:22;;;;;;;2.95;2.10;;;15.50;80.90;;;;;;5048889;28;20029;-70
2022/06/30 01:56:48;;;;;;;3.03;1.90;;;15.50;81.20;;;;;;5048537;28;20056;-70
2022/06/30 01:59:13;;;;;;;4.43;2.55;;;15.50;80.40;;;;;;5046269;28;20429;-70
2022/06/30 02:01:39;;;;;;;4.07;2.15;;;15.40;81.00;;;;;;5050076;28;20082;-70
2022/06/30 02:06:51;;;;;;;5.57;2.33;;;15.40;81.50;;;;;;5049595;28;20044;-70
2022/06/30 02:09:17;;;;;;;5.05;2.70;;;15.40;81.30;;;;;;5050100;28;20060;-70
2022/06/30 02:11:42;;;;;;;3.53;2.35;;;15.40;81.20;;;;;;5043394;28;20448;-70
2022/06/30 02:14:08;;;;;;;3.50;2.38;;;15.50;81.30;;;;;;5046036;28;20097;-70
2022/06/30 02:16:33;;;;;;;3.55;2.30;;;15.40;81.50;;;;;;5049396;28;20111;-70
2022/06/30 02:18:59;;;;;;;5.05;2.30;;;15.50;81.60;;;;;;5044917;28;20482;-70
2022/06/30 02:21:24;;;;;;;5.40;2.50;;;15.50;81.60;;;;;;5049238;28;20039;-70
2022/06/30 02:23:53;;;;;;;4.90;2.60;;;15.50;81.80;;;;;;5051351;28;20033;-70
2022/06/30 02:26:19;;;;;;;5.22;2.50;;;15.50;81.90;;;;;;5047792;28;20422;-70
2022/06/30 02:28:44;;;;;;;3.58;2.30;;;15.50;81.70;;;;;;5047782;28;20064;-70
2022/06/30 02:31:13;;;;;;;4.30;2.58;;;15.50;81.90;;;;;;5048676;28;20112;-70
2022/06/30 02:33:39;;;;;;;6.38;2.78;;;15.50;82.00;;;;;;5046754;28;20040;-70
2022/06/30 02:36:06;;;;;;;7.30;3.20;;;15.50;82.10;;;;;;5046773;28;20107;-70
2022/06/30 02:38:31;;;;;;;4.72;2.55;;;15.50;82.20;;;;;;5050165;28;20052;-70
2022/06/30 02:40:57;;;;;;;3.40;2.40;;;15.40;82.50;;;;;;5049017;28;20404;-70
2022/06/30 02:43:22;;;;;;;10.45;2.97;;;15.40;82.70;;;;;;5047886;28;20033;-70
2022/06/30 02:45:48;;;;;;;4.28;2.40;;;15.40;82.80;;;;;;5046938;28;20086;-70
2022/06/30 02:48:14;;;;;;;6.60;2.80;;;15.40;82.60;;;;;;5044015;28;20037;-70
2022/06/30 02:50:39;;;;;;;5.43;2.60;;;15.40;83.00;;;;;;5046677;28;20036;-70
2022/06/30 02:53:05;;;;;;;6.50;2.63;;;15.30;82.80;;;;;;5047342;28;20115;-70
2022/06/30 02:55:31;;;;;;;6.60;3.00;;;15.30;82.80;;;;;;5047023;28;20550;-70
2022/06/30 02:57:56;;;;;;;7.15;2.80;;;15.30;83.00;;;;;;5045305;28;20405;-70
2022/06/30 03:00:23;;;;;;;5.93;3.10;;;15.30;83.60;;;;;;5036292;28;20045;-70
2022/06/30 03:02:48;;;;;;;6.05;2.95;;;15.30;83.70;;;;;;5049044;28;20463;-70
2022/06/30 03:05:14;;;;;;;5.30;2.90;;;15.30;83.90;;;;;;5046692;28;20071;-70
2022/06/30 03:07:39;;;;;;;6.85;3.33;;;15.30;84.00;;;;;;5050228;28;20290;-70
2022/06/30 03:10:05;;;;;;;4.50;2.80;;;15.20;84.10;;;;;;5045945;28;20479;-70
2022/06/30 03:12:31;;;;;;;7.25;2.72;;;15.30;84.40;;;;;;5046677;28;20507;-70
2022/06/30 03:14:56;;;;;;;6.25;3.25;;;15.30;84.60;;;;;;5039865;28;20116;-70
2022/06/30 03:17:23;;;;;;;7.28;3.50;;;15.30;84.60;;;;;;5046119;28;20041;-70
2022/06/30 03:19:48;;;;;;;5.93;2.95;;;15.30;84.80;;;;;;5047317;28;20368;-70
2022/06/30 03:22:14;;;;;;;5.47;2.75;;;15.30;84.90;;;;;;5047315;28;20037;-70
2022/06/30 03:24:40;;;;;;;11.10;3.65;;;15.40;84.80;;;;;;5048301;28;20029;-70
2022/06/30 03:27:05;;;;;;;7.38;3.03;;;15.30;84.90;;;;;;5040258;28;20036;-70
2022/06/30 03:29:31;;;;;;;6.50;2.83;;;15.40;84.50;;;;;;5044851;28;20037;-70
2022/06/30 03:31:56;;;;;;;5.22;3.40;;;15.30;84.60;;;;;;5043927;28;20033;-70
2022/06/30 03:34:22;;;;;;;4.47;2.90;;;15.40;84.90;;;;;;5047227;28;20154;-70
2022/06/30 03:36:47;;;;;;;5.90;3.15;;;15.40;84.70;;;;;;5046497;28;20036;-70
2022/06/30 03:39:13;;;;;;;7.97;3.08;;;15.40;85.00;;;;;;5044078;28;20028;-70
2022/06/30 03:41:38;;;;;;;5.78;3.10;;;15.40;85.00;;;;;;5044906;28;20083;-70
2022/06/30 03:44:04;;;;;;;5.00;3.17;;;15.50;85.10;;;;;;5047033;28;20257;-70
2022/06/30 03:46:30;;;;;;;4.28;3.08;;;15.50;85.30;;;;;;5043372;28;20142;-70
2022/06/30 03:48:55;;;;;;;6.25;3.08;;;15.50;85.10;;;;;;5043428;28;20078;-70
2022/06/30 03:51:21;;;;;;;5.35;3.55;;;15.50;85.00;;;;;;5045881;28;20375;-70
2022/06/30 03:53:46;;;;;;;5.72;3.28;;;15.50;85.00;;;;;;5043130;28;20040;-70
2022/06/30 03:56:12;;;;;;;5.68;3.00;;;15.50;85.30;;;;;;5044426;28;20363;-70
2022/06/30 03:58:37;;;;;;;5.28;3.25;;;15.50;85.20;;;;;;5045992;28;20029;-70
2022/06/30 04:01:03;;;;;;;7.20;2.90;;;15.50;85.20;;;;;;5043629;28;20401;-70
2022/06/30 04:03:28;;;;;;;6.32;3.00;;;15.60;85.40;;;;;;5045390;28;20091;-70
2022/06/30 04:05:54;;;;;;;5.10;3.10;;;15.60;85.70;;;;;;5044876;28;20049;-70
2022/06/30 04:08:19;;;;;;;5.80;3.17;;;15.60;85.50;;;;;;5045560;28;20028;-70
2022/06/30 04:10:45;;;;;;;7.38;3.30;;;15.60;85.60;;;;;;5044037;28;20151;-70
2022/06/30 04:13:11;;;;;;;6.63;3.50;;;15.70;85.70;;;;;;5043961;28;20033;-70
2022/06/30 04:15:36;;;;;;;5.57;3.35;;;15.70;85.60;;;;;;5043776;28;20100;-70
2022/06/30 04:18:02;;;;;;;9.32;3.55;;;15.70;85.60;;;;;;5041864;28;20040;-71
2022/06/30 04:20:27;;;;;;;5.47;3.00;;;15.80;85.60;;;;;;5047375;28;20033;-71
2022/06/30 04:22:53;;;;;;;12.18;3.60;;;15.80;85.90;;;;;;5051254;28;20032;-71
2022/06/30 04:25:19;;;;;;;4.65;2.90;;;15.90;85.90;;;;;;5048810;28;20341;-71
2022/06/30 04:27:51;;;;;;;5.10;2.88;;;15.90;85.70;;;;;;5050503;28;20021;-70
2022/06/30 04:32:37;;;;;;;6.47;3.40;;;16.00;85.70;;;;;;5049353;28;20444;-69
2022/06/30 04:33:05;;;;;;;6.05;3.13;;;16.00;85.70;;;;;;5048371;28;20052;-69
2022/06/30 04:35:31;;;;;;;7.38;3.20;;;16.00;85.40;;;;;;5045038;28;20044;-69
2022/06/30 04:37:58;;;;;;;5.85;3.30;;;16.10;85.50;;;;;;5045497;28;20033;-69
2022/06/30 04:43:08;;;;;;;6.53;3.20;;;16.10;85.70;;;;;;5049631;28;20087;-69
2022/06/30 04:45:33;;;;;;;5.20;3.50;;;16.30;85.50;;;;;;5047551;28;20036;-69
2022/06/30 04:47:59;;;;;;;5.32;2.90;;;16.30;85.70;;;;;;5051141;28;20033;-69
2022/06/30 04:50:24;;;;;;;8.55;3.10;;;16.40;85.40;;;;;;5044861;28;20056;-69
2022/06/30 04:52:50;;;;;;;5.95;3.10;;;16.50;85.20;;;;;;5051305;28;20040;-69
2022/06/30 04:55:15;;;;;;;5.47;3.47;;;16.50;85.20;;;;;;5044872;28;20834;-69
2022/06/30 04:57:41;;;;;;;7.43;3.38;;;16.60;85.20;;;;;;5050819;28;20033;-69
2022/06/30 05:00:07;;;;;;;9.07;3.70;;;16.60;85.20;;;;;;5043948;28;20032;-69
2022/06/30 05:02:33;;;;;;;6.30;3.55;;;16.80;84.90;;;;;;5044745;28;20460;-69
2022/06/30 05:04:58;;;;;;;6.03;3.22;;;16.90;84.60;;;;;;5048443;28;20043;-69
2022/06/30 05:07:24;;;;;;;7.20;3.97;;;17.00;84.50;;;;;;5049424;28;20029;-69
2022/06/30 05:09:49;;;;;;;11.63;3.70;;;17.00;84.50;;;;;;5041117;28;20029;-69
2022/06/30 05:12:15;;;;;;;5.95;3.50;;;17.20;84.00;;;;;;5047684;28;20040;-69
2022/06/30 05:14:40;;;;;;;8.18;3.80;;;17.30;83.90;;;;;;5048274;28;20500;-69
2022/06/30 05:17:06;;;;;;;8.27;3.40;;;17.40;84.20;;;;;;5046620;28;20072;-69
2022/06/30 05:19:31;;;;;;;6.25;3.67;;;17.50;84.00;;;;;;5046443;28;20056;-69
2022/06/30 05:21:58;;;;;;;6.45;3.50;;;17.60;83.90;;;;;;5045499;28;20096;-69
2022/06/30 05:27:08;;;;;;;6.90;3.90;;;17.80;83.30;;;;;;5043522;28;20498;-69
2022/06/30 05:29:33;;;;;;;6.82;3.75;;;17.80;83.60;;;;;;5039761;28;20025;-66
2022/06/30 05:31:59;;;;;;;6.05;3.13;;;18.00;82.60;;;;;;5045302;28;20033;-66
2022/06/30 05:34:24;;;;;;;5.45;3.47;;;18.00;82.30;;;;;;5045795;28;20036;-66
2022/06/30 05:36:50;;;;;;;5.68;3.47;;;18.20;82.10;;;;;;5038132;28;20068;-66
2022/06/30 05:39:17;;;;;;;6.38;3.45;;;18.20;81.80;;;;;;5039915;28;20063;-66
2022/06/30 05:41:42;;;;;;;6.85;3.53;;;18.30;81.50;;;;;;5044287;28;20132;-66
2022/06/30 05:44:08;;;;;;;6.45;3.80;;;18.50;81.90;;;;;;5041293;28;20119;-66
2022/06/30 05:46:36;;;;;;;5.78;3.60;;;18.50;81.90;;;;;;5046253;28;20070;-66
2022/06/30 05:49:02;;;;;;;8.00;3.30;;;18.60;81.10;;;;;;5043451;28;20056;-66
2022/06/30 05:51:27;;;;;;;7.70;3.60;;;18.70;81.10;;;;;;5037526;28;20064;-67
2022/06/30 05:53:53;;;;;;;7.28;4.40;;;18.70;80.20;;;;;;5033438;28;20471;-66
2022/06/30 05:56:18;;;;;;;6.28;3.28;;;18.90;79.70;;;;;;5032488;28;20144;-65
2022/06/30 05:58:45;;;;;;;7.88;3.90;;;18.90;80.10;;;;;;5042493;28;20041;-66
2022/06/30 06:01:11;;;;;;;8.80;2.85;;;19.00;79.70;;;;;;5045581;28;20034;-67
2022/06/30 06:03:36;;;;;;;6.32;3.40;;;19.00;79.90;;;;;;5041919;28;20119;-67
2022/06/30 06:06:02;;;;;;;6.45;3.45;;;19.10;79.70;;;;;;5043295;28;20150;-67
2022/06/30 06:08:28;;;;;;;5.80;3.30;;;19.30;79.50;;;;;;5050163;28;20100;-67
2022/06/30 06:10:53;;;;;;;8.38;3.60;;;19.40;78.10;;;;;;5049107;28;20037;-66
2022/06/30 06:13:19;;;;;;;5.32;2.72;;;19.50;77.50;;;;;;5043488;28;20025;-67
2022/06/30 06:15:45;;;;;;;5.80;3.40;;;19.60;77.20;;;;;;5050666;28;20036;-67
2022/06/30 06:18:11;;;;;;;5.70;2.88;;;19.70;76.90;;;;;;5040206;28;20565;-68
2022/06/30 06:20:36;;;;;;;8.90;2.95;;;19.90;77.40;;;;;;5052861;28;20024;-68
2022/06/30 06:23:02;;;;;;;6.22;3.00;;;19.90;75.70;;;;;;5057149;28;20104;-68
2022/06/30 06:25:27;;;;;;;4.75;2.75;;;20.10;76.30;;;;;;5044789;28;20387;-68
2022/06/30 06:30:37;;;;;;;7.25;2.65;;;20.20;73.90;;;;;;5047883;28;20108;-70
2022/06/30 06:33:03;;;;;;;7.63;2.80;;;20.40;73.70;;;;;;5040752;28;20412;-71
2022/06/30 06:35:28;;;;;;;5.90;2.90;;;20.50;73.50;;;;;;5050371;28;20503;-71
2022/06/30 06:37:54;;;;;;;7.15;2.78;;;20.60;72.30;;;;;;5047266;28;20442;-71
2022/06/30 06:40:20;;;;;;;5.78;2.80;;;20.60;72.60;;;;;;5046033;28;20402;-71
2022/06/30 06:42:45;;;;;;;4.40;2.53;;;20.60;73.60;;;;;;5046184;28;20499;-70
2022/06/30 06:45:11;;;;;;;5.40;2.72;;;20.60;73.10;;;;;;5041917;28;20063;-70
2022/06/30 06:47:36;;;;;;;5.80;2.70;;;20.80;72.30;;;;;;5043407;28;20105;-71
2022/06/30 06:50:02;;;;;;;3.63;2.40;;;20.90;72.30;;;;;;5038728;28;20040;-71
2022/06/30 06:52:28;;;;;;;6.20;2.95;;;21.00;70.20;;;;;;5046548;28;20112;-71
2022/06/30 06:54:54;;;;;;;5.80;2.55;;;21.20;70.30;;;;;;5038925;28;20037;-71
2022/06/30 06:57:19;;;;;;;5.72;2.65;;;21.50;69.10;;;;;;5043106;28;20086;-71
2022/06/30 06:59:45;;;;;;;3.13;2.40;;;21.50;67.30;;;;;;5046578;28;20055;-71
2022/06/30 07:02:10;;;;;;;7.20;2.80;;;21.50;68.50;;;;;;5045495;28;20036;-71
2022/06/30 07:04:36;;;;;;;5.68;2.83;;;21.80;68.40;;;;;;5043319;28;20039;-71
2022/06/30 07:07:02;;;;;;;4.60;2.40;;;22.10;68.10;;;;;;5046853;28;20052;-71
2022/06/30 07:09:28;;;;;;;2.72;2.30;;;22.30;67.90;;;;;;5046268;28;20037;-71
2022/06/30 07:11:53;;;;;;;6.15;2.60;;;22.50;66.60;;;;;;5047675;28;20352;-71
2022/06/30 07:14:19;;;;;;;6.50;2.33;;;22.50;64.60;;;;;;5046057;28;20411;-71
2022/06/30 07:16:44;;;;;;;3.15;2.17;;;22.70;65.20;;;;;;5048981;28;20086;-71
2022/06/30 07:19:10;;;;;;;3.10;2.00;;;22.90;63.80;;;;;;5047595;28;20086;-71
2022/06/30 07:21:35;;;;;;;3.17;2.22;;;23.20;64.40;;;;;;5044979;28;20530;-71
2022/06/30 07:24:01;;;;;;;6.72;2.90;;;23.30;62.70;;;;;;5045923;28;20036;-71
2022/06/30 07:26:26;;;;;;;6.45;2.25;;;23.40;61.50;;;;;;5040816;28;20025;-71
2022/06/30 07:28:52;;;;;;;4.47;2.10;;;23.60;62.20;;;;;;5046161;28;20028;-71
2022/06/30 07:31:17;;;;;;;2.63;2.20;;;24.00;61.80;;;;;;5053681;28;20037;-71
2022/06/30 07:33:43;;;;;;;4.97;2.20;;;24.20;63.00;;;;;;5044819;28;20424;-71
2022/06/30 07:36:09;;;;;;;3.55;2.00;;;24.20;61.50;;;;;;5047067;28;20128;-71
2022/06/30 07:38:34;;;;;;;5.40;2.20;;;24.40;59.90;;;;;;5047723;28;20302;-71
2022/06/30 07:41:00;;;;;;;3.17;1.95;;;24.50;59.50;;;;;;5042418;28;20097;-71
2022/06/30 07:43:26;;;;;;;2.88;1.88;;;24.20;56.90;;;;;;5041036;28;20044;-71
2022/06/30 07:45:53;;;;;;;3.60;2.00;;;24.60;59.80;;;;;;5047283;28;20116;-71
2022/06/30 07:48:19;;;;;;;2.83;1.83;;;24.70;58.30;;;;;;5051014;28;20445;-71
2022/06/30 07:50:45;;;;;;;3.90;1.60;;;24.80;57.80;;;;;;5042933;28;20041;-71
2022/06/30 07:53:11;;;;;;;2.70;1.60;;;24.60;56.00;;;;;;5040934;28;20411;-71
2022/06/30 07:55:37;;;;;;;3.47;2.28;;;24.60;55.70;;;;;;5040420;28;20063;-71
2022/06/30 07:58:03;;;;;;;3.97;1.73;;;24.40;55.70;;;;;;5042891;28;20060;-71
2022/06/30 08:00:28;;;;;;;4.22;2.25;;;24.50;56.30;;;;;;5036614;28;20029;-71
2022/06/30 08:02:54;;;;;;;3.38;2.00;;;24.80;58.50;;;;;;5046095;28;20021;-71
2022/06/30 08:05:19;;;;;;;3.75;1.70;;;24.50;55.40;;;;;;5046420;28;20091;-71
2022/06/30 08:07:45;;;;;;;3.05;2.15;;;24.70;56.00;;;;;;5042440;28;20044;-71
2022/06/30 08:10:11;;;;;;;3.45;1.88;;;24.70;54.80;;;;;;5046601;28;20036;-71
2022/06/30 08:12:36;;;;;;;3.88;1.80;;;25.00;56.30;;;;;;5048224;28;20029;-71
2022/06/30 08:15:03;;;;;;;4.13;1.73;;;25.30;54.70;;;;;;5044200;28;20503;-71
2022/06/30 08:17:30;;;;;;;6.63;2.00;;;25.30;54.40;;;;;;5045301;28;20029;-71
2022/06/30 08:19:56;;;;;;;5.45;2.00;;;24.90;54.90;;;;;;5041755;28;20049;-72
2022/06/30 08:22:22;;;;;;;3.92;1.88;;;25.30;55.50;;;;;;5045534;28;20080;-71
2022/06/30 08:24:47;;;;;;;5.60;1.80;;;25.50;55.90;;;;;;5046392;28;20200;-71
2022/06/30 08:27:13;;;;;;;3.22;2.10;;;25.60;53.80;;;;;;5042588;28;20037;-71
2022/06/30 08:29:38;;;;;;;3.38;1.85;;;25.90;54.40;;;;;;5038219;28;20102;-71
2022/06/30 08:32:05;;;;;;;3.28;2.05;;;26.00;55.80;;;;;;5046938;28;20041;-71
2022/06/30 08:34:30;;;;;;;5.40;2.05;;;26.00;54.60;;;;;;5034909;28;20068;-71
2022/06/30 08:36:56;;;;;;;4.10;2.30;;;26.20;54.00;;;;;;5040860;28;20469;-71
2022/06/30 08:42:08;;;;;;;3.22;1.75;;;26.50;53.80;;;;;;5042342;28;20165;-71
2022/06/30 08:44:34;;;;;;;3.75;2.08;;;26.60;53.20;;;;;;5039455;28;20083;-71
2022/06/30 08:47:01;;;;;;;3.08;2.20;;;26.30;53.90;;;;;;5047937;28;20484;-71
2022/06/30 08:49:28;;;;;;;5.10;2.55;;;26.50;55.30;;;;;;5042678;28;20067;-71
2022/06/30 08:51:57;;;;;;;4.40;2.50;;;26.50;53.10;;;;;;5040942;28;20135;-71
2022/06/30 08:54:24;;;;;;;4.75;2.20;;;26.80;54.60;;;;;;5042076;28;20445;-71
2022/06/30 08:56:50;;;;;;;4.70;2.63;;;26.70;53.80;;;;;;5055070;28;20061;-71
2022/06/30 08:59:17;;;;;;;2.92;2.10;;;27.10;53.60;;;;;;5044948;28;20048;-71
2022/06/30 09:01:43;;;;;;;3.22;2.20;;;27.30;54.10;;;;;;5052345;28;20041;-72
2022/06/30 09:04:13;;;;;;;3.70;2.40;;;27.20;54.20;;;;;;5036387;28;20033;-71
2022/06/30 09:06:42;;;;;;;3.30;2.47;;;27.10;53.20;;;;;;5040640;28;20039;-72
2022/06/30 09:09:07;;;;;;;3.25;2.15;;;27.40;53.20;;;;;;5046569;28;20180;-71
2022/06/30 09:11:54;;;;;;;6.88;2.63;;;27.60;52.80;;;;;;5040787;28;20138;-71
2022/06/30 09:14:40;;;;;;;3.47;2.35;;;27.40;50.40;;;;;;5048551;28;20033;-71
2022/06/30 09:17:08;;;;;;;5.03;2.30;;;27.10;51.90;;;;;;5049750;28;20033;-71
2022/06/30 09:19:40;;;;;;;4.32;2.40;;;27.50;54.10;;;;;;5046936;28;20058;-71
2022/06/30 09:22:14;;;;;;;3.40;2.20;;;27.40;51.60;;;;;;5042938;28;20545;-71
2022/06/30 09:24:39;;;;;;;3.47;2.17;;;27.60;53.10;;;;;;5050032;28;20037;-71
2022/06/30 09:27:32;;;;;;;4.55;2.70;;;27.60;51.20;;;;;;5041844;28;20486;-71
2022/06/30 09:30:12;;;;;;;3.53;2.30;;;27.50;52.30;;;;;;5036056;28;20417;-72
2022/06/30 09:32:53;;;;;;;4.57;2.30;;;27.50;53.10;;;;;;5043126;28;20033;-71
2022/06/30 09:35:21;;;;;;;4.15;2.15;;;27.90;51.40;;;;;;5045184;28;20064;-71
2022/06/30 09:37:58;;;;;;;2.22;1.55;;;28.00;51.50;;;;;;5047494;28;21022;-71
2022/06/30 09:40:29;;;;;;;5.25;1.95;;;28.20;50.30;;;;;;5042542;28;20421;-71
2022/06/30 09:42:54;;;;;;;5.25;2.45;;;28.40;50.90;;;;;;5044345;28;20021;-71
2022/06/30 09:45:33;;;;;;;4.78;2.08;;;27.70;50.40;;;;;;5045433;28;20044;-72
2022/06/30 09:47:59;;;;;;;5.45;2.20;;;28.00;50.90;;;;;;5047671;28;20037;-72
2022/06/30 09:50:25;;;;;;;3.95;2.20;;;28.70;48.50;;;;;;5049174;28;20029;-71
2022/06/30 09:53:14;;;;;;;4.78;2.30;;;28.10;50.90;;;;;;5055827;28;20048;-72
2022/06/30 09:55:47;;;;;;;4.22;2.20;;;28.50;48.80;;;;;;5049206;28;20055;-72
2022/06/30 09:58:34;;;;;;;4.18;2.70;;;28.50;49.20;;;;;;5042865;28;20090;-72
2022/06/30 10:01:00;;;;;;;3.45;2.47;;;28.20;52.10;;;;;;5048099;28;20056;-72
2022/06/30 10:03:26;;;;;;;3.55;2.15;;;28.00;50.40;;;;;;5042221;28;20151;-72
2022/06/30 10:06:11;;;;;;;3.55;2.15;;;28.10;50.90;;;;;;5049583;28;20375;-72
2022/06/30 10:08:37;;;;;;;4.88;2.35;;;28.60;50.70;;;;;;5051278;28;20417;-72
2022/06/30 10:11:04;;;;;;;3.38;2.05;;;28.50;50.50;;;;;;5042360;28;20035;-72
2022/06/30 10:13:34;;;;;;;4.53;2.70;;;29.00;49.10;;;;;;5047080;28;20156;-72
2022/06/30 10:16:01;;;;;;;;;;;29.00;48.10;;;;;;5051780;28;20025;-72
2022/06/30 10:18:28;;;;;;;3.65;2.22;;;29.00;50.10;;;;;;5045129;28;20670;-72
2022/06/30 10:20:55;;;;;;;6.10;2.40;;;29.00;47.90;;;;;;5045889;28;20490;-72
2022/06/30 10:23:22;;;;;;;7.95;2.40;;;28.90;47.00;;;;;;5049788;28;20429;-72
2022/06/30 10:25:48;;;;;;;4.25;2.20;;;29.10;49.10;;;;;;5042548;28;20087;-72
2022/06/30 10:28:19;;;;;;;3.88;2.17;;;29.50;49.50;;;;;;5053058;28;20034;-72
2022/06/30 10:30:50;;;;;;;3.50;2.30;;;29.50;46.70;;;;;;5043194;28;20035;-72
2022/06/30 10:33:21;;;;;;;;;;;29.20;50.10;;;;;;5047240;28;20441;-70
2022/06/30 10:36:07;;;;;;;4.03;2.53;;;28.60;49.50;;;;;;5043194;28;19915;-70
2022/06/30 10:39:02;;;;;;;11.45;2.60;;;29.20;48.20;;;;;;5043874;28;20029;-71
2022/06/30 10:41:28;;;;;;;4.10;2.53;;;29.60;51.00;;;;;;5049854;28;20047;-70
2022/06/30 10:44:12;;;;;;;3.83;2.28;;;30.00;48.90;;;;;;5043094;28;20025;-70
2022/06/30 10:46:47;;;;;;;6.80;2.30;;;30.30;47.00;;;;;;5050817;28;20048;-69
2022/06/30 10:49:14;;;;;;;5.57;2.30;;;30.70;45.80;;;;;;5034571;28;20033;-70
2022/06/30 10:51:41;;;;;;;4.22;2.15;;;30.10;45.60;;;;;;5043956;28;20033;-70
2022/06/30 10:54:07;;;;;;;4.78;2.50;;;30.40;45.90;;;;;;5042091;28;20037;-71
2022/06/30 10:56:54;;;;;;;3.88;2.20;;;30.30;44.70;;;;;;5041551;28;20036;-71
2022/06/30 10:59:31;;;;;;;3.05;2.60;;;30.20;46.10;;;;;;5047128;28;20025;-71
2022/06/30 11:02:20;;;;;;;4.28;2.30;;;30.20;45.30;;;;;;5049713;28;20040;-70
2022/06/30 11:04:48;;;;;;;3.67;2.20;;;30.90;44.30;;;;;;5045874;28;20232;-70
2022/06/30 11:07:24;;;;;;;5.18;2.40;;;31.00;45.30;;;;;;5046904;28;20389;-70
2022/06/30 11:09:55;;;;;;;4.13;2.22;;;31.00;44.00;;;;;;5040871;28;20056;-70
2022/06/30 11:12:23;;;;;;;3.58;2.47;;;31.40;45.00;;;;;;5043458;28;20021;-69
2022/06/30 11:14:53;;;;;;;4.07;2.40;;;31.40;45.30;;;;;;5041653;28;20028;-70
2022/06/30 11:17:28;;;;;;;6.05;2.22;;;32.40;44.00;;;;;;5043546;28;20877;-71
2022/06/30 11:20:00;;;;;;;3.22;1.90;;;32.30;43.90;;;;;;5044106;28;20053;-70
2022/06/30 11:22:28;;;;;;;5.57;2.20;;;32.80;43.90;;;;;;5034021;28;20064;-70
2022/06/30 11:25:03;;;;;;;4.63;1.90;;;32.70;43.70;;;;;;5045435;28;20050;-70
2022/06/30 11:27:31;;;;;;;3.10;1.92;;;32.00;43.60;;;;;;5046055;28;20040;-70
2022/06/30 11:29:59;;;;;;;4.75;2.30;;;31.10;43.90;;;;;;5044901;28;20069;-70
2022/06/30 11:32:25;;;;;;;4.30;2.40;;;31.20;45.70;;;;;;5038557;28;20041;-70
2022/06/30 11:34:52;;;;;;;4.40;2.67;;;30.90;46.60;;;;;;5040880;28;20143;-69
2022/06/30 11:37:28;;;;;;;3.70;2.13;;;30.80;45.90;;;;;;5044699;28;20210;-69
2022/06/30 11:39:58;;;;;;;3.10;2.15;;;31.40;43.80;;;;;;5047620;28;20155;-69
2022/06/30 11:42:24;;;;;;;5.75;2.15;;;31.90;42.10;;;;;;5048729;28;20115;-70
2022/06/30 11:44:50;;;;;;;3.05;2.05;;;32.30;42.90;;;;;;5045841;28;20116;-70
2022/06/30 11:47:17;;;;;;;2.97;2.10;;;32.00;41.80;;;;;;5048361;28;20495;-70
2022/06/30 11:49:44;;;;;;;4.00;2.10;;;32.20;43.70;;;;;;5043376;28;20126;-70
2022/06/30 11:52:15;;;;;;;3.55;2.25;;;32.60;41.20;;;;;;5040920;28;20081;-70
2022/06/30 11:54:43;;;;;;;3.60;2.03;;;32.10;42.80;;;;;;5045626;28;20122;-70
2022/06/30 11:57:09;;;;;;;3.15;2.08;;;32.40;43.10;;;;;;5045688;28;20033;-70
2022/06/30 11:59:36;;;;;;;3.80;2.00;;;33.00;41.20;;;;;;5041992;28;20113;-70
2022/06/30 12:02:06;;;;;;;2.67;1.98;;;33.00;41.20;;;;;;5045870;28;20060;-70
2022/06/30 12:04:33;;;;;;;2.90;1.88;;;33.40;40.80;;;;;;5044088;28;20556;-70
2022/06/30 12:07:01;;;;;;;3.30;2.28;;;32.10;41.90;;;;;;5048641;28;20029;-70
2022/06/30 12:09:27;;;;;;;6.22;1.90;;;32.20;43.50;;;;;;5047752;28;20033;-70
2022/06/30 12:11:53;;;;;;;3.78;1.90;;;32.70;41.00;;;;;;5046187;28;20064;-70
2022/06/30 12:14:19;;;;;;;5.82;2.45;;;33.40;41.00;;;;;;5045788;28;20086;-70
2022/06/30 12:16:45;;;;;;;3.45;1.90;;;33.20;38.30;;;;;;5046807;28;20373;-70
2022/06/30 12:19:15;;;;;;;3.08;2.00;;;33.00;40.50;;;;;;5045257;28;20365;-70
2022/06/30 12:21:41;;;;;;;5.15;2.28;;;33.70;39.60;;;;;;5043659;28;20048;-70
2022/06/30 12:24:07;;;;;;;3.35;1.77;;;33.90;38.40;;;;;;5044170;28;20048;-70
2022/06/30 12:26:33;;;;;;;2.78;1.83;;;32.80;39.20;;;;;;5045217;28;20326;-70
2022/06/30 12:29:09;;;;;;;3.80;2.15;;;33.80;37.70;;;;;;5045484;28;20041;-70
2022/06/30 12:31:35;;;;;;;3.75;1.83;;;33.50;38.90;;;;;;5045116;28;20106;-70
2022/06/30 12:34:00;;;;;;;6.07;1.77;;;34.70;38.10;;;;;;5044974;28;20025;-69
2022/06/30 12:36:31;;;;;;;2.63;1.95;;;34.20;37.00;;;;;;5048543;28;20029;-70
2022/06/30 12:38:57;;;;;;;4.00;2.35;;;33.70;39.50;;;;;;5045768;28;20447;-69
2022/06/30 12:41:23;;;;;;;4.13;2.10;;;33.00;38.30;;;;;;5035530;28;20049;-70
2022/06/30 12:43:50;;;;;;;3.67;1.70;;;33.40;38.90;;;;;;5040654;28;20094;-70
2022/06/30 12:46:17;;;;;;;4.15;2.10;;;34.00;38.60;;;;;;5049522;28;20036;-70
2022/06/30 12:48:54;;;;;;;3.20;1.80;;;33.70;40.30;;;;;;5050553;28;20057;-70
2022/06/30 12:51:32;;;;;;;4.18;1.85;;;33.60;38.60;;;;;;5045320;28;20025;-70
2022/06/30 12:54:07;;;;;;;4.63;2.03;;;34.50;38.10;;;;;;5032870;28;20037;-70
2022/06/30 12:56:33;;;;;;;5.45;2.20;;;34.50;39.50;;;;;;5041385;28;20082;-70
2022/06/30 12:59:11;;;;;;;7.68;2.33;;;34.50;38.80;;;;;;5046781;28;20055;-70
2022/06/30 13:02:06;;;;;;;4.57;2.13;;;34.00;38.90;;;;;;5044427;28;20143;-70
2022/06/30 13:04:32;;;;;;;4.30;2.00;;;34.70;37.30;;;;;;5035648;28;20045;-69
2022/06/30 13:06:59;;;;;;;2.97;2.15;;;35.00;37.90;;;;;;5042860;28;20380;-69